sensor_id;sensor_type;location;lat;lon;timestamp;P1;durP1;ratioP1;P2;durP2;ratioP2
85208;SDS011;75586;44.496;0.166;2024-02-26T00:04:04;10.50;;;1.50;;
85208;SDS011;75586;44.496;0.166;2024-02-26T00:19:24;13.60;;;2.60;;
85208;SDS011;75586;44.496;0.166;2024-02-26T00:34:45;12.40;;;2.00;;
85208;SDS011;75586;44.496;0.166;2024-02-26T00:50:05;17.67;;;2.90;;
85208;SDS011;75586;44.496;0.166;2024-02-26T01:05:25;18.33;;;2.13;;
85208;SDS011;75586;44.496;0.166;2024-02-26T01:20:45;13.10;;;2.13;;
85208;SDS011;75586;44.496;0.166;2024-02-26T01:36:04;19.07;;;2.23;;
85208;SDS011;75586;44.496;0.166;2024-02-26T01:51:24;10.10;;;1.73;;
85208;SDS011;75586;44.496;0.166;2024-02-26T02:06:44;14.20;;;2.70;;
85208;SDS011;75586;44.496;0.166;2024-02-26T02:22:04;7.00;;;2.93;;
85208;SDS011;75586;44.496;0.166;2024-02-26T02:37:23;12.73;;;2.63;;
85208;SDS011;75586;44.496;0.166;2024-02-26T02:52:42;8.80;;;1.73;;
85208;SDS011;75586;44.496;0.166;2024-02-26T03:08:03;10.00;;;1.83;;
85208;SDS011;75586;44.496;0.166;2024-02-26T03:23:21;11.97;;;1.87;;
85208;SDS011;75586;44.496;0.166;2024-02-26T03:38:40;20.07;;;1.80;;
85208;SDS011;75586;44.496;0.166;2024-02-26T03:54:00;27.10;;;3.13;;
85208;SDS011;75586;44.496;0.166;2024-02-26T04:09:20;23.20;;;2.90;;
85208;SDS011;75586;44.496;0.166;2024-02-26T04:24:40;32.23;;;3.37;;
85208;SDS011;75586;44.496;0.166;2024-02-26T04:40:00;13.77;;;3.20;;
85208;SDS011;75586;44.496;0.166;2024-02-26T04:55:21;13.13;;;2.40;;
85208;SDS011;75586;44.496;0.166;2024-02-26T05:10:40;19.00;;;2.13;;
85208;SDS011;75586;44.496;0.166;2024-02-26T05:25:59;20.07;;;3.03;;
85208;SDS011;75586;44.496;0.166;2024-02-26T05:41:20;15.53;;;2.70;;
85208;SDS011;75586;44.496;0.166;2024-02-26T05:56:41;16.17;;;2.40;;
85208;SDS011;75586;44.496;0.166;2024-02-26T06:12:02;18.43;;;2.30;;
85208;SDS011;75586;44.496;0.166;2024-02-26T06:27:23;25.80;;;2.57;;
85208;SDS011;75586;44.496;0.166;2024-02-26T06:42:42;7.80;;;1.60;;
85208;SDS011;75586;44.496;0.166;2024-02-26T06:58:03;5.13;;;1.20;;
85208;SDS011;75586;44.496;0.166;2024-02-26T07:13:24;5.07;;;1.37;;
85208;SDS011;75586;44.496;0.166;2024-02-26T07:28:43;12.13;;;1.47;;
85208;SDS011;75586;44.496;0.166;2024-02-26T07:44:05;13.43;;;1.77;;
85208;SDS011;75586;44.496;0.166;2024-02-26T07:59:26;10.50;;;1.20;;
85208;SDS011;75586;44.496;0.166;2024-02-26T08:14:45;11.80;;;2.43;;
85208;SDS011;75586;44.496;0.166;2024-02-26T08:30:04;12.50;;;1.73;;
85208;SDS011;75586;44.496;0.166;2024-02-26T08:45:23;12.67;;;2.13;;
85208;SDS011;75586;44.496;0.166;2024-02-26T09:00:43;8.17;;;1.67;;
85208;SDS011;75586;44.496;0.166;2024-02-26T09:16:04;17.80;;;2.27;;
85208;SDS011;75586;44.496;0.166;2024-02-26T09:31:22;13.23;;;1.93;;
85208;SDS011;75586;44.496;0.166;2024-02-26T09:46:42;7.37;;;0.70;;
85208;SDS011;75586;44.496;0.166;2024-02-26T10:02:02;7.20;;;1.87;;
85208;SDS011;75586;44.496;0.166;2024-02-26T10:17:20;16.00;;;2.27;;
85208;SDS011;75586;44.496;0.166;2024-02-26T10:32:39;9.23;;;2.07;;
85208;SDS011;75586;44.496;0.166;2024-02-26T10:48:00;10.80;;;2.67;;
85208;SDS011;75586;44.496;0.166;2024-02-26T11:03:20;7.00;;;1.00;;
85208;SDS011;75586;44.496;0.166;2024-02-26T11:18:42;10.37;;;1.50;;
85208;SDS011;75586;44.496;0.166;2024-02-26T11:34:01;15.73;;;1.80;;
85208;SDS011;75586;44.496;0.166;2024-02-26T11:49:30;8.03;;;1.70;;
85208;SDS011;75586;44.496;0.166;2024-02-26T12:04:41;13.60;;;2.03;;
85208;SDS011;75586;44.496;0.166;2024-02-26T12:20:10;7.00;;;1.40;;
85208;SDS011;75586;44.496;0.166;2024-02-26T12:35:24;4.77;;;1.10;;
85208;SDS011;75586;44.496;0.166;2024-02-26T12:50:44;2.77;;;0.83;;
85208;SDS011;75586;44.496;0.166;2024-02-26T13:06:03;7.63;;;3.07;;
85208;SDS011;75586;44.496;0.166;2024-02-26T13:21:22;7.20;;;1.53;;
85208;SDS011;75586;44.496;0.166;2024-02-26T13:36:43;4.70;;;1.23;;
85208;SDS011;75586;44.496;0.166;2024-02-26T13:52:03;2.70;;;0.80;;
85208;SDS011;75586;44.496;0.166;2024-02-26T14:07:23;2.20;;;0.63;;
85208;SDS011;75586;44.496;0.166;2024-02-26T14:22:42;2.97;;;0.70;;
85208;SDS011;75586;44.496;0.166;2024-02-26T14:38:00;1.73;;;0.60;;
85208;SDS011;75586;44.496;0.166;2024-02-26T14:53:21;3.07;;;0.87;;
85208;SDS011;75586;44.496;0.166;2024-02-26T15:08:39;3.13;;;1.10;;
85208;SDS011;75586;44.496;0.166;2024-02-26T15:23:58;7.27;;;1.33;;
85208;SDS011;75586;44.496;0.166;2024-02-26T15:39:18;1.40;;;0.77;;
85208;SDS011;75586;44.496;0.166;2024-02-26T15:54:38;3.17;;;1.07;;
85208;SDS011;75586;44.496;0.166;2024-02-26T16:09:58;7.17;;;1.90;;
85208;SDS011;75586;44.496;0.166;2024-02-26T16:25:18;1.87;;;1.37;;
85208;SDS011;75586;44.496;0.166;2024-02-26T16:40:38;7.73;;;0.90;;
85208;SDS011;75586;44.496;0.166;2024-02-26T16:55:58;5.80;;;1.80;;
85208;SDS011;75586;44.496;0.166;2024-02-26T17:11:19;3.70;;;2.30;;
85208;SDS011;75586;44.496;0.166;2024-02-26T17:26:39;3.43;;;1.80;;
85208;SDS011;75586;44.496;0.166;2024-02-26T17:41:57;3.73;;;1.70;;
85208;SDS011;75586;44.496;0.166;2024-02-26T17:57:17;7.37;;;1.70;;
85208;SDS011;75586;44.496;0.166;2024-02-26T18:12:36;2.93;;;2.10;;
85208;SDS011;75586;44.496;0.166;2024-02-26T18:27:57;5.73;;;3.23;;
85208;SDS011;75586;44.496;0.166;2024-02-26T18:43:17;5.30;;;3.13;;
85208;SDS011;75586;44.496;0.166;2024-02-26T18:58:37;6.23;;;2.93;;
85208;SDS011;75586;44.496;0.166;2024-02-26T19:13:56;1.57;;;0.87;;
85208;SDS011;75586;44.496;0.166;2024-02-26T19:29:16;2.77;;;1.23;;
85208;SDS011;75586;44.496;0.166;2024-02-26T19:44:37;2.57;;;1.87;;
85208;SDS011;75586;44.496;0.166;2024-02-26T19:59:56;2.60;;;1.57;;
85208;SDS011;75586;44.496;0.166;2024-02-26T20:15:16;1.67;;;1.10;;
85208;SDS011;75586;44.496;0.166;2024-02-26T20:30:36;3.90;;;1.73;;
85208;SDS011;75586;44.496;0.166;2024-02-26T20:45:54;3.07;;;1.50;;
85208;SDS011;75586;44.496;0.166;2024-02-26T21:01:14;2.70;;;1.80;;
85208;SDS011;75586;44.496;0.166;2024-02-26T21:16:33;5.77;;;2.93;;
85208;SDS011;75586;44.496;0.166;2024-02-26T21:31:52;1.50;;;1.40;;
85208;SDS011;75586;44.496;0.166;2024-02-26T21:47:10;2.87;;;1.67;;
85208;SDS011;75586;44.496;0.166;2024-02-26T22:02:31;2.30;;;1.77;;
85208;SDS011;75586;44.496;0.166;2024-02-26T22:17:50;2.83;;;2.20;;
85208;SDS011;75586;44.496;0.166;2024-02-26T22:33:08;3.50;;;2.50;;
85208;SDS011;75586;44.496;0.166;2024-02-26T22:48:28;3.77;;;2.53;;
85208;SDS011;75586;44.496;0.166;2024-02-26T23:03:49;4.53;;;3.03;;
85208;SDS011;75586;44.496;0.166;2024-02-26T23:19:08;4.60;;;3.53;;
85208;SDS011;75586;44.496;0.166;2024-02-26T23:34:27;4.10;;;2.77;;
85208;SDS011;75586;44.496;0.166;2024-02-26T23:49:48;2.80;;;2.17;;
